Executive Decision — CFK9267 — position and weather

sailwx.info

Track history (hours):
 
Tides and Currents Weather Stations Pressure Air Temp Water Temp Dewpoint Dewpoint Depression Visibility Wind Speed Wind Dir Waves Ship Positions

Executive Decision

Last reported at 2014-Jul-31 06:05 UTC. Time now 2014-Aug-01 16:00 UTC.
Position N 49°18' W 123°08'.

Length 14 m.

Type: Pleasure craft. MMSI: 316015863.

Date/timePositionNaut miles runAvg speedWind from/ knotsBaromVisibWave heightAir tempDewpointWater temp
2014-Jul-31 06:05N 49°18' W 123°08'1 0.5
2014-Jul-31 03:33N 49°18' W 123°09'  
2014-Jul-27 21:33N 49°18' W 123°08'2 0.8
2014-Jul-27 19:32N 49°17' W 123°10'2 1.6
2014-Jul-27 18:33N 49°18' W 123°08'2 0.1
2014-Jul-27 06:33N 49°18' W 123°05'3 2.7
2014-Jul-27 05:30N 49°18' W 123°09'0 0.0
2014-Jul-27 04:27N 49°18' W 123°09'3 3.5
2014-Jul-27 03:33N 49°19' W 123°05'  
Track history (hours):
 
Tides and Currents Weather Stations Pressure Air Temp Water Temp Dewpoint Dewpoint Depression Visibility Wind Speed Wind Dir Waves Ship Positions

Executive Decision

Last reported at 2014-Jul-31 06:05 UTC. Time now 2014-Aug-01 16:00 UTC.
Position N 49°18' W 123°08'.

Length 14 m.

Type: Pleasure craft. MMSI: 316015863.

Date/timePositionNaut miles runAvg speedWind from/ knotsBaromVisibWave heightAir tempDewpointWater temp
2014-Jul-31 06:05N 49°18' W 123°08'1 0.5
2014-Jul-31 03:33N 49°18' W 123°09'  
2014-Jul-27 21:33N 49°18' W 123°08'2 0.8
2014-Jul-27 19:32N 49°17' W 123°10'2 1.6
2014-Jul-27 18:33N 49°18' W 123°08'2 0.1
2014-Jul-27 06:33N 49°18' W 123°05'3 2.7
2014-Jul-27 05:30N 49°18' W 123°09'0 0.0
2014-Jul-27 04:27N 49°18' W 123°09'3 3.5
2014-Jul-27 03:33N 49°19' W 123°05'  

Dump ship's entire track history